RJSR METAR and TAF | Updated Today

RJSR METAR

Odate Noshiro Airport

Observation time: 41 min. ago

RJSR 060700Z 16002KT 9999 FEW003 SCT040 BKN050 05/03 Q1027

Need help? Read our tutorial on how to read METARs or read the parsed version below.

Odate Noshiro Airport (RJSR) METAR

  • Weather conditions on Mon, 06 Dec 2021 07:00:00 +0000 (41 min. ago):
  • Present conditions: Dry
  • Clouds: A few at 91 meters; scattered at 1219 meters; broken sky at 1524 meters
  • Visibility: Greater than 10 km
  • Wind: 160 degrees at 2 knots
  • Temperature: 5 celsius
  • Dew point: 3 celsius
  • Pressure: 1027 millibars
  • Remarks: None


Useful to know...